createdAt,value
2023-04-29T00:00:24.096Z,91.82
2023-04-29T00:02:56.273Z,91.38
2023-04-29T00:05:31.180Z,91.44
2023-04-29T00:08:03.978Z,91.92
2023-04-29T00:10:35.935Z,91.56
2023-04-29T00:13:10.261Z,91.32
2023-04-29T00:15:44.710Z,91.95
2023-04-29T00:18:16.330Z,92.24
2023-04-29T00:20:47.909Z,92.43
2023-04-29T00:23:19.645Z,92.30
2023-04-29T00:25:53.625Z,92.60
2023-04-29T00:28:25.537Z,92.72
2023-04-29T00:30:59.787Z,92.53
2023-04-29T00:33:31.597Z,93.40
2023-04-29T00:36:04.304Z,93.68
2023-04-29T00:38:36.758Z,93.44
2023-04-29T00:41:09.318Z,93.51
2023-04-29T00:43:40.968Z,93.44
2023-04-29T00:46:15.242Z,93.36
2023-04-29T00:48:49.779Z,93.43
2023-04-29T00:51:21.675Z,93.51
2023-04-29T00:53:54.160Z,93.74
2023-04-29T00:56:26.099Z,92.71
2023-04-29T00:58:58.931Z,92.74
2023-04-29T01:01:30.768Z,92.71
2023-04-29T01:04:03.199Z,92.76
2023-04-29T01:06:53.343Z,92.26
2023-04-29T01:09:27.846Z,92.45
2023-04-29T01:12:13.073Z,92.39
2023-04-29T01:14:53.673Z,91.69
2023-04-29T01:17:31.393Z,91.81
2023-04-29T01:20:04.768Z,91.97
2023-04-29T01:22:37.852Z,92.42
2023-04-29T01:25:10.128Z,92.19
2023-04-29T01:27:58.062Z,92.53
2023-04-29T01:30:51.396Z,91.82
2023-04-29T01:33:23.095Z,92.71
2023-04-29T01:38:49.338Z,92.77
2023-04-29T01:41:39.323Z,92.51
2023-04-29T01:44:20.570Z,92.92
2023-04-29T01:46:54.548Z,92.68
2023-04-29T01:49:29.884Z,92.14
2023-04-29T01:52:01.623Z,92.20
2023-04-29T01:54:36.750Z,92.37
2023-04-29T01:57:08.367Z,93.03
2023-04-29T01:59:41.085Z,92.38
2023-04-29T02:02:15.406Z,92.66
2023-04-29T02:04:47.365Z,93.03
2023-04-29T02:07:19.299Z,92.16
2023-04-29T02:09:51.254Z,92.69
2023-04-29T02:12:23.867Z,92.46
2023-04-29T02:14:56.073Z,90.90
2023-04-29T02:17:27.851Z,91.56
2023-04-29T02:19:59.622Z,91.91
2023-04-29T02:22:31.457Z,92.12
2023-04-29T02:25:07.122Z,91.77
2023-04-29T02:27:39.291Z,90.96
2023-04-29T02:30:11.685Z,91.73
2023-04-29T02:32:43.389Z,92.19
2023-04-29T02:35:15.155Z,91.29
2023-04-29T02:37:46.949Z,91.37
2023-04-29T02:40:18.580Z,91.75
2023-04-29T02:42:53.162Z,92.05
2023-04-29T02:45:27.254Z,92.22
2023-04-29T02:48:01.201Z,91.95
2023-04-29T02:50:33.321Z,93.26
2023-04-29T02:53:05.014Z,93.70
2023-04-29T02:55:36.766Z,93.76
2023-04-29T02:58:08.515Z,92.58
2023-04-29T03:00:45.541Z,92.18
2023-04-29T03:03:17.602Z,92.48
2023-04-29T03:05:49.528Z,93.56
2023-04-29T03:08:24.477Z,93.09
2023-04-29T03:10:56.335Z,93.91
2023-04-29T03:13:30.331Z,94.17
2023-04-29T03:16:02.214Z,95.19
2023-04-29T03:18:36.720Z,94.17
2023-04-29T03:21:09.000Z,92.66
2023-04-29T03:23:40.865Z,92.09
2023-04-29T03:26:15.698Z,92.97
2023-04-29T03:28:48.052Z,93.28
2023-04-29T03:31:24.614Z,93.34
2023-04-29T03:33:56.320Z,93.53
2023-04-29T03:36:28.218Z,93.77
2023-04-29T03:39:00.103Z,92.97
2023-04-29T03:41:34.814Z,93.24
2023-04-29T03:44:06.745Z,94.71
2023-04-29T03:46:38.494Z,94.09
2023-04-29T03:49:10.240Z,93.85
2023-04-29T03:51:42.062Z,94.68
2023-04-29T03:54:13.917Z,93.26
2023-04-29T03:56:45.641Z,92.10
2023-04-29T03:59:17.247Z,92.52
2023-04-29T04:01:49.010Z,91.83
2023-04-29T04:04:21.681Z,91.10
2023-04-29T04:06:53.549Z,91.73
2023-04-29T04:09:25.273Z,93.53
2023-04-29T04:11:56.880Z,93.93
2023-04-29T04:14:31.784Z,94.38
2023-04-29T04:17:03.422Z,94.78
2023-04-29T04:19:35.179Z,92.08
2023-04-29T04:22:13.277Z,92.36
2023-04-29T04:24:44.925Z,93.62
2023-04-29T04:27:16.535Z,92.91
2023-04-29T04:29:48.236Z,92.42
2023-04-29T04:32:19.909Z,92.62
2023-04-29T04:34:51.653Z,91.61
2023-04-29T04:37:23.415Z,91.62
2023-04-29T04:39:55.185Z,90.68
2023-04-29T04:42:27.014Z,90.08
2023-04-29T04:45:01.663Z,90.64
2023-04-29T04:47:33.404Z,90.83
2023-04-29T04:50:05.831Z,89.17
2023-04-29T04:52:37.592Z,89.07
2023-04-29T04:55:09.779Z,90.17
2023-04-29T04:57:41.643Z,87.43
2023-04-29T05:00:14.022Z,87.70
2023-04-29T05:02:45.952Z,88.87
2023-04-29T05:05:20.812Z,87.30
2023-04-29T05:07:52.443Z,86.99
2023-04-29T05:10:26.661Z,87.21
2023-04-29T05:13:00.288Z,86.78
2023-04-29T05:15:32.633Z,86.80
2023-04-29T05:18:04.344Z,82.60
2023-04-29T05:20:36.459Z,83.33
2023-04-29T05:23:09.031Z,85.24
2023-04-29T05:25:43.921Z,85.11
2023-04-29T05:28:18.708Z,85.96
2023-04-29T05:30:54.105Z,86.01
2023-04-29T05:33:25.843Z,86.25
2023-04-29T05:35:57.581Z,86.20
2023-04-29T05:38:34.119Z,86.33
2023-04-29T05:41:06.188Z,84.47
2023-04-29T05:43:37.848Z,81.59
2023-04-29T05:46:09.904Z,79.30
2023-04-29T05:48:41.610Z,78.62
2023-04-29T05:51:14.072Z,82.89
2023-04-29T05:53:45.788Z,83.51
2023-04-29T05:56:18.271Z,83.20
2023-04-29T05:58:50.457Z,81.42
2023-04-29T06:01:22.139Z,79.07
2023-04-29T06:03:56.944Z,80.53
2023-04-29T06:06:31.876Z,80.73
2023-04-29T06:09:08.545Z,80.95
2023-04-29T06:11:45.553Z,82.44
2023-04-29T06:14:17.575Z,82.38
2023-04-29T06:16:49.702Z,81.66
2023-04-29T06:19:21.318Z,80.03
2023-04-29T06:21:59.000Z,79.88
2023-04-29T06:24:31.059Z,78.73
2023-04-29T06:27:04.521Z,78.46
2023-04-29T06:29:38.071Z,76.31
2023-04-29T06:32:10.034Z,73.57
2023-04-29T06:34:41.916Z,72.69
2023-04-29T06:37:13.782Z,72.44
2023-04-29T06:39:45.528Z,71.66
2023-04-29T06:42:17.121Z,70.65
2023-04-29T06:44:48.823Z,72.05
2023-04-29T06:47:20.796Z,71.30
2023-04-29T06:49:53.556Z,70.50
2023-04-29T06:52:25.496Z,67.27
2023-04-29T06:54:57.167Z,69.03
2023-04-29T06:57:32.269Z,66.36
2023-04-29T07:00:07.481Z,69.38
2023-04-29T07:02:39.362Z,62.41
2023-04-29T07:05:11.627Z,65.55
2023-04-29T07:07:45.606Z,61.55
2023-04-29T07:10:22.700Z,63.13
2023-04-29T07:12:54.587Z,61.44
2023-04-29T07:15:30.675Z,58.30
2023-04-29T07:18:09.116Z,56.55
2023-04-29T07:20:40.801Z,53.70
2023-04-29T07:23:12.509Z,56.62
2023-04-29T07:25:44.308Z,50.05
2023-04-29T07:28:15.952Z,51.04
2023-04-29T07:30:47.598Z,48.75
2023-04-29T07:33:19.943Z,53.46
2023-04-29T07:35:51.804Z,49.14
2023-04-29T07:38:23.708Z,48.20
2023-04-29T07:40:55.529Z,45.09
2023-04-29T07:43:27.385Z,45.34
2023-04-29T07:45:59.073Z,44.63
2023-04-29T07:48:30.895Z,48.47
2023-04-29T07:51:02.700Z,46.63
2023-04-29T07:53:34.474Z,45.33
2023-04-29T07:56:07.825Z,41.31
2023-04-29T07:58:39.576Z,40.14
2023-04-29T08:01:12.466Z,40.60
2023-04-29T08:03:45.630Z,41.00
2023-04-29T08:06:20.899Z,39.43
2023-04-29T08:08:57.749Z,40.72
2023-04-29T08:11:29.468Z,40.09
2023-04-29T08:14:01.065Z,39.04
2023-04-29T08:16:33.075Z,40.87
2023-04-29T08:19:04.716Z,41.68
2023-04-29T08:21:36.653Z,42.08
2023-04-29T08:24:08.281Z,43.01
2023-04-29T08:26:41.927Z,43.76
2023-04-29T08:29:13.512Z,42.92
2023-04-29T08:31:48.188Z,42.34
2023-04-29T08:34:19.936Z,41.07
2023-04-29T08:36:51.479Z,40.54
2023-04-29T08:39:25.329Z,41.04
2023-04-29T08:41:58.062Z,40.49
2023-04-29T08:44:32.809Z,40.15
2023-04-29T08:47:05.286Z,41.35
2023-04-29T08:49:38.418Z,41.11
2023-04-29T08:52:10.356Z,41.98
2023-04-29T08:54:42.091Z,41.98
2023-04-29T08:57:14.799Z,42.51
2023-04-29T08:59:46.889Z,43.15
2023-04-29T09:02:21.692Z,42.90
2023-04-29T09:05:24.146Z,43.65
2023-04-29T09:08:03.577Z,44.32
2023-04-29T09:10:42.008Z,45.36
2023-04-29T09:13:27.810Z,44.70
2023-04-29T09:15:59.487Z,45.46
2023-04-29T09:18:46.872Z,44.88
2023-04-29T09:21:29.982Z,44.67
2023-04-29T09:24:03.600Z,44.97
2023-04-29T09:26:43.353Z,46.16
2023-04-29T09:29:18.420Z,45.03
2023-04-29T09:31:54.794Z,44.41
2023-04-29T09:34:37.492Z,44.29
2023-04-29T09:37:26.230Z,44.45
2023-04-29T09:40:01.523Z,43.81
2023-04-29T09:42:43.270Z,43.88
2023-04-29T09:45:33.539Z,43.98
2023-04-29T09:48:08.992Z,43.33
2023-04-29T09:50:45.132Z,44.24
2023-04-29T09:53:30.143Z,43.51
2023-04-29T09:56:03.905Z,43.39
2023-04-29T09:58:39.117Z,43.98
2023-04-29T10:01:13.453Z,44.40
2023-04-29T10:03:45.885Z,43.51
2023-04-29T10:06:19.178Z,43.81
2023-04-29T10:08:51.572Z,43.72
2023-04-29T10:11:23.724Z,44.27
2023-04-29T10:13:56.163Z,44.70
2023-04-29T10:16:32.107Z,45.32
2023-04-29T10:19:13.444Z,45.77
2023-04-29T10:21:45.446Z,46.49
2023-04-29T10:24:19.385Z,48.07
2023-04-29T10:26:53.524Z,48.74
2023-04-29T10:29:28.718Z,50.07
2023-04-29T10:32:02.825Z,49.55
2023-04-29T10:34:36.975Z,51.52
2023-04-29T10:37:11.484Z,53.08
2023-04-29T10:39:49.016Z,51.66
2023-04-29T10:42:46.508Z,51.36
2023-04-29T10:45:27.697Z,53.06
2023-04-29T10:48:06.414Z,53.39
2023-04-29T10:50:46.879Z,54.65
2023-04-29T10:53:23.794Z,52.63
2023-04-29T10:56:05.362Z,51.32
2023-04-29T10:58:47.150Z,50.74
2023-04-29T11:01:18.985Z,51.83
2023-04-29T11:03:56.111Z,53.61
2023-04-29T11:06:35.245Z,51.99
2023-04-29T11:09:21.804Z,52.30
2023-04-29T11:11:58.021Z,51.87
2023-04-29T11:14:43.654Z,52.76
2023-04-29T11:17:16.877Z,53.40
2023-04-29T11:19:51.361Z,53.91
2023-04-29T11:22:23.438Z,55.94
2023-04-29T11:25:00.823Z,55.59
2023-04-29T11:27:38.102Z,56.27
2023-04-29T11:30:13.871Z,56.66
2023-04-29T11:32:51.639Z,56.84
2023-04-29T11:35:25.673Z,57.01
2023-04-29T11:38:03.817Z,58.36
2023-04-29T11:40:35.689Z,59.37
2023-04-29T11:43:07.713Z,59.99
2023-04-29T11:45:47.369Z,58.47
2023-04-29T11:48:26.015Z,61.05
2023-04-29T11:51:00.037Z,59.42
2023-04-29T11:53:31.673Z,60.67
2023-04-29T11:56:03.326Z,61.15
2023-04-29T11:58:35.269Z,62.39
2023-04-29T12:01:07.310Z,62.47
2023-04-29T12:03:39.215Z,60.84
2023-04-29T12:06:14.118Z,61.24
2023-04-29T12:08:48.025Z,60.57
2023-04-29T12:11:20.389Z,59.82
2023-04-29T12:13:52.449Z,59.95
2023-04-29T12:16:24.564Z,58.95
2023-04-29T12:18:56.780Z,57.87
2023-04-29T12:21:28.775Z,57.09
2023-04-29T12:24:02.903Z,56.39
2023-04-29T12:26:35.286Z,57.68
2023-04-29T12:29:11.290Z,57.96
2023-04-29T12:31:43.681Z,56.40
2023-04-29T12:34:15.349Z,56.66
2023-04-29T12:36:49.220Z,57.36
2023-04-29T12:39:21.314Z,57.48
2023-04-29T12:41:58.425Z,58.34
2023-04-29T12:44:40.911Z,57.94
2023-04-29T12:47:13.897Z,59.10
2023-04-29T12:49:47.341Z,59.38
2023-04-29T12:52:19.152Z,58.69
2023-04-29T12:54:51.163Z,59.16
2023-04-29T12:57:25.309Z,58.93
2023-04-29T12:59:56.951Z,58.80
2023-04-29T13:02:28.855Z,58.93
2023-04-29T13:05:00.822Z,59.11
2023-04-29T13:07:32.610Z,59.34
2023-04-29T13:10:06.489Z,59.37
2023-04-29T13:12:38.604Z,59.55
2023-04-29T13:15:11.474Z,60.02
2023-04-29T13:17:43.052Z,59.76
2023-04-29T13:20:15.342Z,59.60
2023-04-29T13:22:49.223Z,59.39
2023-04-29T13:25:21.055Z,60.74
2023-04-29T13:27:52.990Z,60.40
2023-04-29T13:30:24.698Z,60.35
2023-04-29T13:33:01.262Z,59.88
2023-04-29T13:35:42.045Z,59.80
2023-04-29T13:38:14.299Z,60.57
2023-04-29T13:40:48.963Z,60.83
2023-04-29T13:43:32.979Z,59.90
2023-04-29T13:46:09.313Z,60.71
2023-04-29T14:07:07.332Z,62.42
2023-04-29T14:09:40.151Z,62.11
2023-04-29T14:12:11.803Z,62.51
2023-04-29T14:14:43.753Z,62.59
2023-04-29T14:17:15.323Z,63.49
2023-04-29T14:19:47.082Z,64.65
2023-04-29T14:22:18.899Z,65.52
2023-04-29T14:24:51.967Z,65.20
2023-04-29T14:27:24.168Z,65.50
2023-04-29T14:29:55.918Z,65.72
2023-04-29T14:32:27.581Z,65.22
2023-04-29T14:34:59.233Z,64.56
2023-04-29T14:37:30.875Z,65.25
2023-04-29T14:40:02.427Z,65.59
2023-04-29T14:42:34.085Z,65.67
2023-04-29T14:45:06.995Z,65.58
2023-04-29T14:47:39.040Z,66.24
2023-04-29T14:50:10.787Z,66.45
2023-04-29T14:52:42.550Z,66.88
2023-04-29T14:55:14.876Z,67.05
2023-04-29T14:57:46.850Z,67.29
2023-04-29T15:00:21.541Z,67.97
2023-04-29T15:02:55.865Z,68.48
2023-04-29T15:05:27.914Z,68.55
2023-04-29T15:08:01.538Z,68.60
2023-04-29T15:10:33.320Z,68.14
2023-04-29T15:13:06.139Z,68.54
2023-04-29T15:15:37.744Z,68.34
2023-04-29T15:18:09.700Z,67.87
2023-04-29T15:20:41.354Z,68.10
2023-04-29T15:23:12.992Z,68.23
2023-04-29T15:25:45.127Z,67.74
2023-04-29T15:28:16.931Z,68.04
2023-04-29T15:30:48.549Z,68.55
2023-04-29T15:33:20.224Z,67.97
2023-04-29T15:35:52.797Z,68.76
2023-04-29T15:38:24.519Z,68.93
2023-04-29T15:41:00.850Z,68.70
2023-04-29T15:43:33.364Z,69.30
2023-04-29T15:46:04.996Z,69.06
2023-04-29T15:48:37.136Z,69.42
2023-04-29T15:51:10.174Z,69.63
2023-04-29T15:53:43.816Z,69.43
2023-04-29T15:56:18.162Z,70.51
2023-04-29T15:58:49.728Z,70.76
2023-04-29T16:01:21.486Z,71.21
2023-04-29T16:03:53.317Z,70.34
2023-04-29T16:06:25.246Z,71.64
2023-04-29T16:08:56.912Z,71.48
2023-04-29T16:11:28.547Z,71.77
2023-04-29T16:14:00.194Z,71.86
2023-04-29T16:16:31.963Z,72.13
2023-04-29T16:19:03.660Z,72.41
2023-04-29T16:21:35.536Z,73.15
2023-04-29T16:24:07.995Z,73.00
2023-04-29T16:26:42.988Z,74.09
2023-04-29T16:29:14.642Z,74.26
2023-04-29T16:31:46.423Z,75.16
2023-04-29T16:34:18.286Z,75.38
2023-04-29T16:36:49.963Z,74.80
2023-04-29T16:39:21.673Z,74.35
2023-04-29T16:41:56.604Z,75.44
2023-04-29T16:44:28.385Z,74.94
2023-04-29T16:47:00.136Z,75.40
2023-04-29T16:49:32.001Z,76.46
2023-04-29T16:52:04.881Z,76.11
2023-04-29T16:54:36.525Z,76.00
2023-04-29T16:57:08.251Z,76.47
2023-04-29T16:59:39.871Z,76.91
2023-04-29T17:02:12.391Z,77.14
2023-04-29T17:04:44.138Z,76.77
2023-04-29T17:07:16.113Z,77.20
2023-04-29T17:09:47.914Z,77.46
2023-04-29T17:12:19.633Z,77.85
2023-04-29T17:14:51.692Z,78.13
2023-04-29T17:17:23.395Z,79.41
2023-04-29T17:19:55.788Z,78.04
2023-04-29T17:22:27.657Z,78.02
2023-04-29T17:24:59.339Z,77.61
2023-04-29T17:27:31.213Z,77.10
2023-04-29T17:30:03.420Z,76.53
2023-04-29T17:32:39.370Z,77.00
2023-04-29T17:35:11.810Z,77.41
2023-04-29T17:37:43.554Z,77.00
2023-04-29T17:40:15.117Z,76.78
2023-04-29T17:42:46.805Z,77.18
2023-04-29T17:45:18.521Z,76.83
2023-04-29T17:47:50.226Z,77.01
2023-04-29T17:50:21.876Z,77.30
2023-04-29T17:52:53.960Z,78.03
2023-04-29T17:55:25.982Z,77.77
2023-04-29T17:57:58.872Z,78.37
2023-04-29T18:00:30.866Z,77.96
2023-04-29T18:03:03.695Z,77.26
2023-04-29T18:05:35.574Z,78.00
2023-04-29T18:08:07.197Z,77.13
2023-04-29T18:10:38.740Z,77.16
2023-04-29T18:13:10.318Z,75.77
2023-04-29T18:15:42.117Z,74.98
2023-04-29T18:18:13.755Z,74.43
2023-04-29T18:20:45.629Z,74.22
2023-04-29T18:23:17.371Z,74.06
2023-04-29T18:25:49.061Z,73.46
2023-04-29T18:28:25.201Z,73.78
2023-04-29T18:30:57.265Z,70.83
2023-04-29T18:33:31.011Z,68.54
2023-04-29T18:36:03.144Z,68.16
2023-04-29T18:38:35.145Z,68.20
2023-04-29T18:41:06.824Z,67.98
2023-04-29T18:43:38.484Z,68.18
2023-04-29T18:46:10.126Z,67.26
2023-04-29T18:48:41.861Z,67.24
2023-04-29T18:51:13.509Z,67.84
2023-04-29T18:53:45.159Z,68.34
2023-04-29T18:56:17.149Z,68.33
2023-04-29T18:58:49.640Z,68.81
2023-04-29T19:01:21.210Z,69.25
2023-04-29T19:03:52.771Z,69.30
2023-04-29T19:06:24.344Z,69.53
2023-04-29T19:08:56.081Z,69.93
2023-04-29T19:11:27.930Z,70.04
2023-04-29T19:13:59.570Z,69.82
2023-04-29T19:16:31.233Z,70.12
2023-04-29T19:19:03.688Z,70.34
2023-04-29T19:21:35.897Z,70.27
2023-04-29T19:24:07.495Z,68.63
2023-04-29T19:26:40.288Z,67.17
2023-04-29T19:29:11.976Z,67.15
2023-04-29T19:31:44.060Z,67.39
2023-04-29T19:34:16.242Z,68.54
2023-04-29T19:36:47.863Z,69.25
2023-04-29T19:39:19.684Z,69.64
2023-04-29T19:41:51.736Z,68.91
2023-04-29T19:44:23.405Z,68.47
2023-04-29T19:46:55.523Z,67.44
2023-04-29T19:49:27.218Z,65.76
2023-04-29T19:51:58.812Z,66.10
2023-04-29T19:54:31.047Z,65.44
2023-04-29T19:57:03.153Z,64.97
2023-04-29T19:59:34.730Z,64.24
2023-04-29T20:02:07.604Z,64.29
2023-04-29T20:04:39.299Z,64.84
2023-04-29T20:07:10.906Z,65.61
2023-04-29T20:09:45.919Z,65.35
2023-04-29T20:12:17.491Z,65.36
2023-04-29T20:14:49.096Z,65.31
2023-04-29T20:17:20.783Z,65.16
2023-04-29T20:19:55.489Z,65.12
2023-04-29T20:22:29.601Z,65.81
2023-04-29T20:25:01.254Z,66.27
2023-04-29T20:27:33.081Z,66.51
2023-04-29T20:30:05.497Z,67.06
2023-04-29T20:32:39.514Z,67.52
2023-04-29T20:35:13.576Z,68.05
2023-04-29T20:37:46.043Z,68.53
2023-04-29T20:40:17.713Z,69.02
2023-04-29T20:42:49.385Z,69.70
2023-04-29T20:45:22.519Z,70.55
2023-04-29T20:47:54.576Z,70.66
2023-04-29T20:50:27.940Z,71.51
2023-04-29T20:52:59.586Z,71.98
2023-04-29T20:55:31.185Z,72.04
2023-04-29T20:58:02.728Z,72.09
2023-04-29T21:00:38.330Z,72.85
2023-04-29T21:03:10.458Z,73.33
2023-04-29T21:05:42.117Z,74.11
2023-04-29T21:08:14.196Z,74.11
2023-04-29T21:10:45.749Z,74.79
2023-04-29T21:13:17.942Z,75.28
2023-04-29T21:15:49.686Z,75.36
2023-04-29T21:18:22.593Z,76.26
2023-04-29T21:20:57.319Z,76.48
2023-04-29T21:23:29.169Z,76.48
2023-04-29T21:26:00.850Z,77.54
2023-04-29T21:28:32.710Z,77.52
2023-04-29T21:31:06.757Z,78.38
2023-04-29T21:33:39.898Z,79.25
2023-04-29T21:36:12.222Z,79.38
2023-04-29T21:38:43.906Z,79.80
2023-04-29T21:41:29.339Z,80.13
2023-04-29T21:44:02.271Z,81.10
2023-04-29T21:46:37.214Z,81.12
2023-04-29T21:49:09.769Z,80.74
2023-04-29T21:51:41.395Z,81.78
2023-04-29T21:54:13.002Z,82.38
2023-04-29T21:56:44.556Z,82.76
2023-04-29T21:59:17.542Z,82.94
2023-04-29T22:02:00.372Z,82.69
2023-04-29T22:04:32.120Z,84.22
2023-04-29T22:07:03.732Z,84.38
2023-04-29T22:09:35.386Z,84.16
2023-04-29T22:12:06.999Z,84.83
2023-04-29T22:20:21.358Z,86.62
2023-04-29T22:22:53.530Z,86.43
2023-04-29T22:25:25.747Z,86.74
2023-04-29T22:28:00.791Z,87.27
2023-04-29T22:30:32.487Z,87.56
2023-04-29T22:33:04.323Z,87.58
2023-04-29T22:35:36.100Z,87.53
2023-04-29T22:38:07.868Z,87.98
2023-04-29T22:40:39.510Z,88.04
2023-04-29T22:43:11.321Z,88.44
2023-04-29T22:45:43.067Z,88.38
2023-04-29T22:48:14.825Z,89.11
2023-04-29T22:50:58.782Z,89.38
2023-04-29T22:53:30.591Z,90.31
2023-04-29T22:56:02.349Z,90.02
2023-04-29T22:58:36.431Z,90.49
2023-04-29T23:01:10.578Z,90.93
2023-04-29T23:03:43.565Z,90.87
2023-04-29T23:06:15.201Z,90.93
2023-04-29T23:08:47.417Z,91.90
2023-04-29T23:11:19.647Z,92.25
2023-04-29T23:13:53.047Z,92.51
2023-04-29T23:16:24.830Z,93.20
2023-04-29T23:18:56.578Z,92.51
2023-04-29T23:21:28.320Z,93.27
2023-04-29T23:23:59.938Z,93.71
2023-04-29T23:26:31.742Z,93.96
2023-04-29T23:29:03.499Z,93.06
2023-04-29T23:31:35.110Z,93.96
2023-04-29T23:34:08.011Z,93.73
2023-04-29T23:36:39.570Z,93.85
2023-04-29T23:39:11.239Z,93.01
2023-04-29T23:41:42.908Z,93.60
2023-04-29T23:44:14.482Z,93.30
2023-04-29T23:46:46.514Z,93.81
2023-04-29T23:49:18.375Z,94.06
2023-04-29T23:51:50.027Z,95.17
2023-04-29T23:54:21.684Z,94.36
2023-04-29T23:56:53.436Z,94.66
2023-04-29T23:59:25.140Z,94.08
